sensor_id;sensor_type;location;lat;lon;timestamp;temperature;humidity
10051;DHT22;5065;46.942;7.432;2023-05-08T00:01:29;15.90;99.90
10051;DHT22;5065;46.942;7.432;2023-05-08T00:03:56;15.90;99.90
10051;DHT22;5065;46.942;7.432;2023-05-08T00:06:25;15.90;99.90
10051;DHT22;5065;46.942;7.432;2023-05-08T00:08:53;15.90;99.90
10051;DHT22;5065;46.942;7.432;2023-05-08T00:11:20;15.80;99.90
10051;DHT22;5065;46.942;7.432;2023-05-08T00:13:47;15.90;99.90
10051;DHT22;5065;46.942;7.432;2023-05-08T00:16:14;15.90;99.90
10051;DHT22;5065;46.942;7.432;2023-05-08T00:18:41;15.90;99.90
10051;DHT22;5065;46.942;7.432;2023-05-08T00:21:09;15.90;99.90
10051;DHT22;5065;46.942;7.432;2023-05-08T00:23:37;15.80;99.90
10051;DHT22;5065;46.942;7.432;2023-05-08T00:26:04;15.80;99.90
10051;DHT22;5065;46.942;7.432;2023-05-08T00:28:31;15.80;99.90
10051;DHT22;5065;46.942;7.432;2023-05-08T00:30:59;15.80;99.90
10051;DHT22;5065;46.942;7.432;2023-05-08T00:33:27;15.80;99.90
10051;DHT22;5065;46.942;7.432;2023-05-08T00:35:58;15.70;99.90
10051;DHT22;5065;46.942;7.432;2023-05-08T00:38:26;15.70;99.90
10051;DHT22;5065;46.942;7.432;2023-05-08T00:40:54;15.70;99.90
10051;DHT22;5065;46.942;7.432;2023-05-08T00:43:21;15.80;99.90
10051;DHT22;5065;46.942;7.432;2023-05-08T00:45:50;15.80;99.90
10051;DHT22;5065;46.942;7.432;2023-05-08T00:48:20;15.80;99.90
10051;DHT22;5065;46.942;7.432;2023-05-08T00:50:48;15.80;99.90
10051;DHT22;5065;46.942;7.432;2023-05-08T00:53:16;15.80;99.90
10051;DHT22;5065;46.942;7.432;2023-05-08T00:55:45;15.80;99.90
10051;DHT22;5065;46.942;7.432;2023-05-08T00:58:14;15.80;99.90
10051;DHT22;5065;46.942;7.432;2023-05-08T01:00:43;15.70;99.90
10051;DHT22;5065;46.942;7.432;2023-05-08T01:03:11;15.70;99.90
10051;DHT22;5065;46.942;7.432;2023-05-08T01:05:39;15.70;99.90
10051;DHT22;5065;46.942;7.432;2023-05-08T01:08:06;15.70;99.90
10051;DHT22;5065;46.942;7.432;2023-05-08T01:10:41;15.70;99.90
10051;DHT22;5065;46.942;7.432;2023-05-08T01:13:19;15.60;99.90
10051;DHT22;5065;46.942;7.432;2023-05-08T01:15:56;15.60;99.90
10051;DHT22;5065;46.942;7.432;2023-05-08T01:18:46;15.60;99.90
10051;DHT22;5065;46.942;7.432;2023-05-08T01:21:23;15.60;99.90
10051;DHT22;5065;46.942;7.432;2023-05-08T01:27:25;15.40;99.90
10051;DHT22;5065;46.942;7.432;2023-05-08T01:30:15;15.40;99.90
10051;DHT22;5065;46.942;7.432;2023-05-08T01:32:52;15.50;99.90
10051;DHT22;5065;46.942;7.432;2023-05-08T01:35:26;15.50;99.90
10051;DHT22;5065;46.942;7.432;2023-05-08T01:37:59;15.50;99.90
10051;DHT22;5065;46.942;7.432;2023-05-08T01:40:34;15.60;99.90
10051;DHT22;5065;46.942;7.432;2023-05-08T01:43:09;15.60;99.90
10051;DHT22;5065;46.942;7.432;2023-05-08T01:45:44;15.60;99.90
10051;DHT22;5065;46.942;7.432;2023-05-08T01:48:19;15.60;99.90
10051;DHT22;5065;46.942;7.432;2023-05-08T01:50:51;15.60;99.90
10051;DHT22;5065;46.942;7.432;2023-05-08T01:53:25;15.50;99.90
10051;DHT22;5065;46.942;7.432;2023-05-08T01:55:57;15.50;99.90
10051;DHT22;5065;46.942;7.432;2023-05-08T01:58:26;15.50;99.90
10051;DHT22;5065;46.942;7.432;2023-05-08T02:00:56;15.50;99.90
10051;DHT22;5065;46.942;7.432;2023-05-08T02:03:25;15.60;99.90
10051;DHT22;5065;46.942;7.432;2023-05-08T02:05:54;15.60;99.90
10051;DHT22;5065;46.942;7.432;2023-05-08T02:08:23;15.50;99.90
10051;DHT22;5065;46.942;7.432;2023-05-08T02:10:53;15.50;99.90
10051;DHT22;5065;46.942;7.432;2023-05-08T02:13:21;15.50;99.90
10051;DHT22;5065;46.942;7.432;2023-05-08T02:15:51;15.50;99.90
10051;DHT22;5065;46.942;7.432;2023-05-08T02:18:20;15.50;99.90
10051;DHT22;5065;46.942;7.432;2023-05-08T02:20:50;15.50;99.90
10051;DHT22;5065;46.942;7.432;2023-05-08T02:23:18;15.50;99.90
10051;DHT22;5065;46.942;7.432;2023-05-08T02:25:47;15.50;99.90
10051;DHT22;5065;46.942;7.432;2023-05-08T02:28:15;15.40;99.90
10051;DHT22;5065;46.942;7.432;2023-05-08T02:30:44;15.40;99.90
10051;DHT22;5065;46.942;7.432;2023-05-08T02:33:12;15.40;99.90
10051;DHT22;5065;46.942;7.432;2023-05-08T02:35:43;15.40;99.90
10051;DHT22;5065;46.942;7.432;2023-05-08T02:38:13;15.40;99.90
10051;DHT22;5065;46.942;7.432;2023-05-08T02:40:44;15.40;99.90
10051;DHT22;5065;46.942;7.432;2023-05-08T02:43:12;15.40;99.90
10051;DHT22;5065;46.942;7.432;2023-05-08T02:45:44;15.40;99.90
10051;DHT22;5065;46.942;7.432;2023-05-08T02:48:18;15.40;99.90
10051;DHT22;5065;46.942;7.432;2023-05-08T02:50:56;15.40;99.90
10051;DHT22;5065;46.942;7.432;2023-05-08T02:53:31;15.30;99.90
10051;DHT22;5065;46.942;7.432;2023-05-08T02:56:04;15.30;99.90
10051;DHT22;5065;46.942;7.432;2023-05-08T02:58:41;15.30;99.90
10051;DHT22;5065;46.942;7.432;2023-05-08T03:01:15;15.30;99.90
10051;DHT22;5065;46.942;7.432;2023-05-08T03:03:48;15.30;99.90
10051;DHT22;5065;46.942;7.432;2023-05-08T03:06:18;15.20;99.90
10051;DHT22;5065;46.942;7.432;2023-05-08T03:08:49;15.20;99.90
10051;DHT22;5065;46.942;7.432;2023-05-08T03:11:21;15.30;99.90
10051;DHT22;5065;46.942;7.432;2023-05-08T03:13:50;15.30;99.90
10051;DHT22;5065;46.942;7.432;2023-05-08T03:16:24;15.30;99.90
10051;DHT22;5065;46.942;7.432;2023-05-08T03:18:56;15.30;99.90
10051;DHT22;5065;46.942;7.432;2023-05-08T03:21:26;15.20;99.90
10051;DHT22;5065;46.942;7.432;2023-05-08T03:23:57;15.20;99.90
10051;DHT22;5065;46.942;7.432;2023-05-08T03:26:25;15.20;99.90
10051;DHT22;5065;46.942;7.432;2023-05-08T03:28:53;15.20;99.90
10051;DHT22;5065;46.942;7.432;2023-05-08T03:31:22;15.20;99.90
10051;DHT22;5065;46.942;7.432;2023-05-08T03:33:52;15.20;99.90
10051;DHT22;5065;46.942;7.432;2023-05-08T03:36:19;15.10;99.90
10051;DHT22;5065;46.942;7.432;2023-05-08T03:38:47;15.20;99.90
10051;DHT22;5065;46.942;7.432;2023-05-08T03:41:16;15.20;99.90
10051;DHT22;5065;46.942;7.432;2023-05-08T03:43:43;15.20;99.90
10051;DHT22;5065;46.942;7.432;2023-05-08T03:46:11;15.10;99.90
10051;DHT22;5065;46.942;7.432;2023-05-08T03:48:39;15.10;99.90
10051;DHT22;5065;46.942;7.432;2023-05-08T03:51:06;15.10;99.90
10051;DHT22;5065;46.942;7.432;2023-05-08T03:53:34;15.10;99.90
10051;DHT22;5065;46.942;7.432;2023-05-08T03:56:01;15.10;99.90
10051;DHT22;5065;46.942;7.432;2023-05-08T03:58:36;15.10;99.90
10051;DHT22;5065;46.942;7.432;2023-05-08T04:01:07;15.10;99.90
10051;DHT22;5065;46.942;7.432;2023-05-08T04:03:47;15.10;99.90
10051;DHT22;5065;46.942;7.432;2023-05-08T04:06:22;15.00;99.90
10051;DHT22;5065;46.942;7.432;2023-05-08T04:08:57;15.00;99.90
10051;DHT22;5065;46.942;7.432;2023-05-08T04:11:30;15.10;99.90
10051;DHT22;5065;46.942;7.432;2023-05-08T04:14:03;15.00;99.90
10051;DHT22;5065;46.942;7.432;2023-05-08T04:16:36;15.00;99.90
10051;DHT22;5065;46.942;7.432;2023-05-08T04:19:08;15.00;99.90
10051;DHT22;5065;46.942;7.432;2023-05-08T04:21:39;15.00;99.90
10051;DHT22;5065;46.942;7.432;2023-05-08T04:24:11;15.00;99.90
10051;DHT22;5065;46.942;7.432;2023-05-08T04:26:39;14.90;99.90
10051;DHT22;5065;46.942;7.432;2023-05-08T04:29:08;14.90;99.90
10051;DHT22;5065;46.942;7.432;2023-05-08T04:31:36;14.90;99.90
10051;DHT22;5065;46.942;7.432;2023-05-08T04:34:04;14.80;99.90
10051;DHT22;5065;46.942;7.432;2023-05-08T04:36:33;14.90;99.90
10051;DHT22;5065;46.942;7.432;2023-05-08T04:39:01;14.90;99.90
10051;DHT22;5065;46.942;7.432;2023-05-08T04:41:28;14.90;99.90
10051;DHT22;5065;46.942;7.432;2023-05-08T04:43:56;14.90;99.90
10051;DHT22;5065;46.942;7.432;2023-05-08T04:46:24;14.80;99.90
10051;DHT22;5065;46.942;7.432;2023-05-08T04:48:51;14.80;99.90
10051;DHT22;5065;46.942;7.432;2023-05-08T04:51:18;14.80;99.90
10051;DHT22;5065;46.942;7.432;2023-05-08T04:53:46;14.80;99.90
10051;DHT22;5065;46.942;7.432;2023-05-08T04:56:13;14.90;99.90
10051;DHT22;5065;46.942;7.432;2023-05-08T04:58:40;14.90;99.90
10051;DHT22;5065;46.942;7.432;2023-05-08T05:01:07;14.90;99.90
10051;DHT22;5065;46.942;7.432;2023-05-08T05:03:35;14.80;99.90
10051;DHT22;5065;46.942;7.432;2023-05-08T05:06:03;14.80;99.90
10051;DHT22;5065;46.942;7.432;2023-05-08T05:08:30;14.80;99.90
10051;DHT22;5065;46.942;7.432;2023-05-08T05:10:57;14.80;99.90
10051;DHT22;5065;46.942;7.432;2023-05-08T05:13:24;14.80;99.90
10051;DHT22;5065;46.942;7.432;2023-05-08T05:15:51;14.80;99.90
10051;DHT22;5065;46.942;7.432;2023-05-08T05:18:20;14.80;99.90
10051;DHT22;5065;46.942;7.432;2023-05-08T05:20:48;14.90;99.90
10051;DHT22;5065;46.942;7.432;2023-05-08T05:23:15;14.90;99.90
10051;DHT22;5065;46.942;7.432;2023-05-08T05:25:42;14.90;99.90
10051;DHT22;5065;46.942;7.432;2023-05-08T05:28:10;14.90;99.90
10051;DHT22;5065;46.942;7.432;2023-05-08T05:30:37;14.90;99.90
10051;DHT22;5065;46.942;7.432;2023-05-08T05:33:04;14.90;99.90
10051;DHT22;5065;46.942;7.432;2023-05-08T05:35:31;14.90;99.90
10051;DHT22;5065;46.942;7.432;2023-05-08T05:37:59;14.90;99.90
10051;DHT22;5065;46.942;7.432;2023-05-08T05:40:27;14.90;99.90
10051;DHT22;5065;46.942;7.432;2023-05-08T05:42:54;14.80;99.90
10051;DHT22;5065;46.942;7.432;2023-05-08T05:45:21;14.90;99.90
10051;DHT22;5065;46.942;7.432;2023-05-08T05:47:48;14.80;99.90
10051;DHT22;5065;46.942;7.432;2023-05-08T05:50:18;14.90;99.90
10051;DHT22;5065;46.942;7.432;2023-05-08T05:52:47;14.90;99.90
10051;DHT22;5065;46.942;7.432;2023-05-08T05:55:15;15.00;99.90
10051;DHT22;5065;46.942;7.432;2023-05-08T05:57:42;15.10;99.90
10051;DHT22;5065;46.942;7.432;2023-05-08T06:00:10;15.10;99.90
10051;DHT22;5065;46.942;7.432;2023-05-08T06:02:37;15.10;99.90
10051;DHT22;5065;46.942;7.432;2023-05-08T06:05:06;15.10;99.90
10051;DHT22;5065;46.942;7.432;2023-05-08T06:07:35;15.10;99.90
10051;DHT22;5065;46.942;7.432;2023-05-08T06:10:03;15.20;99.90
10051;DHT22;5065;46.942;7.432;2023-05-08T06:12:32;15.10;99.90
10051;DHT22;5065;46.942;7.432;2023-05-08T06:14:59;15.20;99.90
10051;DHT22;5065;46.942;7.432;2023-05-08T06:17:26;15.20;99.90
10051;DHT22;5065;46.942;7.432;2023-05-08T06:19:53;15.30;99.90
10051;DHT22;5065;46.942;7.432;2023-05-08T06:22:21;15.30;99.90
10051;DHT22;5065;46.942;7.432;2023-05-08T06:24:50;15.30;99.90
10051;DHT22;5065;46.942;7.432;2023-05-08T06:27:18;15.30;99.90
10051;DHT22;5065;46.942;7.432;2023-05-08T06:29:48;15.30;99.90
10051;DHT22;5065;46.942;7.432;2023-05-08T06:32:16;15.30;99.90
10051;DHT22;5065;46.942;7.432;2023-05-08T06:34:43;15.40;99.90
10051;DHT22;5065;46.942;7.432;2023-05-08T06:37:11;15.40;99.90
10051;DHT22;5065;46.942;7.432;2023-05-08T06:39:38;15.40;99.90
10051;DHT22;5065;46.942;7.432;2023-05-08T06:42:05;15.40;99.90
10051;DHT22;5065;46.942;7.432;2023-05-08T06:44:32;15.40;99.90
10051;DHT22;5065;46.942;7.432;2023-05-08T06:47:01;15.40;99.90
10051;DHT22;5065;46.942;7.432;2023-05-08T06:49:28;15.40;99.90
10051;DHT22;5065;46.942;7.432;2023-05-08T06:51:55;15.40;99.90
10051;DHT22;5065;46.942;7.432;2023-05-08T06:54:22;15.50;99.90
10051;DHT22;5065;46.942;7.432;2023-05-08T06:56:51;15.50;99.90
10051;DHT22;5065;46.942;7.432;2023-05-08T06:59:18;15.50;99.90
10051;DHT22;5065;46.942;7.432;2023-05-08T07:01:45;15.50;99.90
10051;DHT22;5065;46.942;7.432;2023-05-08T07:04:14;15.50;99.90
10051;DHT22;5065;46.942;7.432;2023-05-08T07:06:41;15.50;99.90
10051;DHT22;5065;46.942;7.432;2023-05-08T07:09:08;15.60;99.90
10051;DHT22;5065;46.942;7.432;2023-05-08T07:11:36;15.60;99.90
10051;DHT22;5065;46.942;7.432;2023-05-08T07:14:03;15.60;99.90
10051;DHT22;5065;46.942;7.432;2023-05-08T07:16:30;15.70;99.90
10051;DHT22;5065;46.942;7.432;2023-05-08T07:18:57;15.70;99.90
10051;DHT22;5065;46.942;7.432;2023-05-08T07:21:26;15.70;99.90
10051;DHT22;5065;46.942;7.432;2023-05-08T07:23:54;15.70;99.90
10051;DHT22;5065;46.942;7.432;2023-05-08T07:26:21;15.70;99.90
10051;DHT22;5065;46.942;7.432;2023-05-08T07:28:48;15.70;99.90
10051;DHT22;5065;46.942;7.432;2023-05-08T07:31:18;15.80;99.90
10051;DHT22;5065;46.942;7.432;2023-05-08T07:33:45;15.90;99.90
10051;DHT22;5065;46.942;7.432;2023-05-08T07:36:13;16.00;99.90
10051;DHT22;5065;46.942;7.432;2023-05-08T07:38:41;16.10;99.90
10051;DHT22;5065;46.942;7.432;2023-05-08T07:41:09;16.20;99.90
10051;DHT22;5065;46.942;7.432;2023-05-08T07:43:36;16.30;99.90
10051;DHT22;5065;46.942;7.432;2023-05-08T07:46:04;16.40;99.90
10051;DHT22;5065;46.942;7.432;2023-05-08T07:48:31;16.40;99.90
10051;DHT22;5065;46.942;7.432;2023-05-08T07:50:59;16.40;99.90
10051;DHT22;5065;46.942;7.432;2023-05-08T07:53:26;16.50;99.90
10051;DHT22;5065;46.942;7.432;2023-05-08T07:55:54;16.50;99.90
10051;DHT22;5065;46.942;7.432;2023-05-08T07:58:22;16.40;99.90
10051;DHT22;5065;46.942;7.432;2023-05-08T08:00:49;16.40;99.90
10051;DHT22;5065;46.942;7.432;2023-05-08T08:03:16;16.50;99.90
10051;DHT22;5065;46.942;7.432;2023-05-08T08:05:43;16.50;99.90
10051;DHT22;5065;46.942;7.432;2023-05-08T08:08:10;16.60;99.90
10051;DHT22;5065;46.942;7.432;2023-05-08T08:10:37;16.60;99.90
10051;DHT22;5065;46.942;7.432;2023-05-08T08:13:06;16.60;99.90
10051;DHT22;5065;46.942;7.432;2023-05-08T08:15:33;16.60;99.90
10051;DHT22;5065;46.942;7.432;2023-05-08T08:18:02;16.60;99.90
10051;DHT22;5065;46.942;7.432;2023-05-08T08:20:29;16.70;99.90
10051;DHT22;5065;46.942;7.432;2023-05-08T08:22:56;16.70;99.90
10051;DHT22;5065;46.942;7.432;2023-05-08T08:25:23;16.70;99.90
10051;DHT22;5065;46.942;7.432;2023-05-08T08:27:51;16.80;99.90
10051;DHT22;5065;46.942;7.432;2023-05-08T08:30:20;16.90;99.90
10051;DHT22;5065;46.942;7.432;2023-05-08T08:32:47;17.00;99.90
10051;DHT22;5065;46.942;7.432;2023-05-08T08:35:14;17.00;99.90
10051;DHT22;5065;46.942;7.432;2023-05-08T08:37:41;17.10;99.90
10051;DHT22;5065;46.942;7.432;2023-05-08T08:40:09;17.10;99.90
10051;DHT22;5065;46.942;7.432;2023-05-08T08:42:36;17.20;99.90
10051;DHT22;5065;46.942;7.432;2023-05-08T08:45:04;17.30;99.90
10051;DHT22;5065;46.942;7.432;2023-05-08T08:47:34;17.30;99.90
10051;DHT22;5065;46.942;7.432;2023-05-08T08:50:03;17.30;99.90
10051;DHT22;5065;46.942;7.432;2023-05-08T08:52:39;17.40;99.90
10051;DHT22;5065;46.942;7.432;2023-05-08T08:55:10;17.50;99.90
10051;DHT22;5065;46.942;7.432;2023-05-08T08:57:44;17.60;99.90
10051;DHT22;5065;46.942;7.432;2023-05-08T09:00:15;17.70;99.90
10051;DHT22;5065;46.942;7.432;2023-05-08T09:02:45;17.90;99.90
10051;DHT22;5065;46.942;7.432;2023-05-08T09:05:12;17.90;99.90
10051;DHT22;5065;46.942;7.432;2023-05-08T09:07:39;18.00;99.90
10051;DHT22;5065;46.942;7.432;2023-05-08T09:10:09;18.10;99.90
10051;DHT22;5065;46.942;7.432;2023-05-08T09:12:40;18.20;99.90
10051;DHT22;5065;46.942;7.432;2023-05-08T09:15:07;18.30;99.90
10051;DHT22;5065;46.942;7.432;2023-05-08T09:17:34;18.60;99.90
10051;DHT22;5065;46.942;7.432;2023-05-08T09:20:04;19.00;99.90
10051;DHT22;5065;46.942;7.432;2023-05-08T09:22:32;19.50;99.90
10051;DHT22;5065;46.942;7.432;2023-05-08T09:25:01;19.90;99.90
10051;DHT22;5065;46.942;7.432;2023-05-08T09:27:30;20.10;99.90
10051;DHT22;5065;46.942;7.432;2023-05-08T09:29:58;20.30;99.90
10051;DHT22;5065;46.942;7.432;2023-05-08T09:32:27;20.60;99.90
10051;DHT22;5065;46.942;7.432;2023-05-08T09:34:55;20.70;99.90
10051;DHT22;5065;46.942;7.432;2023-05-08T09:37:25;20.70;99.90
10051;DHT22;5065;46.942;7.432;2023-05-08T09:39:52;20.80;99.90
10051;DHT22;5065;46.942;7.432;2023-05-08T09:42:19;20.80;99.90
10051;DHT22;5065;46.942;7.432;2023-05-08T09:44:50;20.70;99.90
10051;DHT22;5065;46.942;7.432;2023-05-08T09:47:18;20.70;99.90
10051;DHT22;5065;46.942;7.432;2023-05-08T09:49:56;20.60;99.90
10051;DHT22;5065;46.942;7.432;2023-05-08T09:52:25;20.50;99.90
10051;DHT22;5065;46.942;7.432;2023-05-08T09:54:56;20.40;99.90
10051;DHT22;5065;46.942;7.432;2023-05-08T09:57:24;20.30;99.90
10051;DHT22;5065;46.942;7.432;2023-05-08T10:00:00;20.30;99.90
10051;DHT22;5065;46.942;7.432;2023-05-08T10:02:28;20.20;99.90
10051;DHT22;5065;46.942;7.432;2023-05-08T10:04:55;20.10;99.90
10051;DHT22;5065;46.942;7.432;2023-05-08T10:07:32;20.00;99.90
10051;DHT22;5065;46.942;7.432;2023-05-08T10:10:01;19.90;99.90
10051;DHT22;5065;46.942;7.432;2023-05-08T10:12:29;19.80;99.90
10051;DHT22;5065;46.942;7.432;2023-05-08T10:14:56;19.80;99.90
10051;DHT22;5065;46.942;7.432;2023-05-08T10:17:33;19.80;99.90
10051;DHT22;5065;46.942;7.432;2023-05-08T10:20:06;19.80;99.90
10051;DHT22;5065;46.942;7.432;2023-05-08T10:22:37;19.80;99.90
10051;DHT22;5065;46.942;7.432;2023-05-08T10:25:11;19.90;99.90
10051;DHT22;5065;46.942;7.432;2023-05-08T10:27:46;20.10;99.90
10051;DHT22;5065;46.942;7.432;2023-05-08T10:30:16;20.20;99.90
10051;DHT22;5065;46.942;7.432;2023-05-08T10:32:47;20.20;99.90
10051;DHT22;5065;46.942;7.432;2023-05-08T10:35:17;20.20;99.90
10051;DHT22;5065;46.942;7.432;2023-05-08T10:37:47;20.40;99.90
10051;DHT22;5065;46.942;7.432;2023-05-08T10:40:14;20.40;99.90
10051;DHT22;5065;46.942;7.432;2023-05-08T10:42:44;20.40;99.90
10051;DHT22;5065;46.942;7.432;2023-05-08T10:45:11;20.40;99.90
10051;DHT22;5065;46.942;7.432;2023-05-08T10:47:47;20.50;99.90
10051;DHT22;5065;46.942;7.432;2023-05-08T10:50:39;20.70;99.90
10051;DHT22;5065;46.942;7.432;2023-05-08T10:53:16;20.80;99.90
10051;DHT22;5065;46.942;7.432;2023-05-08T10:55:49;20.80;99.90
10051;DHT22;5065;46.942;7.432;2023-05-08T10:58:29;20.80;99.90
10051;DHT22;5065;46.942;7.432;2023-05-08T11:01:15;20.90;99.90
10051;DHT22;5065;46.942;7.432;2023-05-08T11:03:44;20.90;99.90
10051;DHT22;5065;46.942;7.432;2023-05-08T11:06:12;20.80;99.90
10051;DHT22;5065;46.942;7.432;2023-05-08T11:08:48;20.90;99.90
10051;DHT22;5065;46.942;7.432;2023-05-08T11:11:27;20.80;99.90
10051;DHT22;5065;46.942;7.432;2023-05-08T11:14:09;20.80;99.90
10051;DHT22;5065;46.942;7.432;2023-05-08T11:17:02;20.80;99.90
10051;DHT22;5065;46.942;7.432;2023-05-08T11:19:30;20.70;99.90
10051;DHT22;5065;46.942;7.432;2023-05-08T11:22:14;20.60;99.90
10051;DHT22;5065;46.942;7.432;2023-05-08T11:24:49;20.50;99.90
10051;DHT22;5065;46.942;7.432;2023-05-08T11:27:16;20.50;99.90
10051;DHT22;5065;46.942;7.432;2023-05-08T11:29:43;20.40;99.90
10051;DHT22;5065;46.942;7.432;2023-05-08T11:32:11;20.40;99.90
10051;DHT22;5065;46.942;7.432;2023-05-08T11:34:44;20.30;99.90
10051;DHT22;5065;46.942;7.432;2023-05-08T11:37:16;20.40;99.90
10051;DHT22;5065;46.942;7.432;2023-05-08T11:39:44;20.30;99.90
10051;DHT22;5065;46.942;7.432;2023-05-08T11:42:34;20.30;99.90
10051;DHT22;5065;46.942;7.432;2023-05-08T11:45:06;20.30;99.90
10051;DHT22;5065;46.942;7.432;2023-05-08T11:47:37;20.30;99.90
10051;DHT22;5065;46.942;7.432;2023-05-08T11:50:05;20.30;99.90
10051;DHT22;5065;46.942;7.432;2023-05-08T11:52:35;20.30;99.90
10051;DHT22;5065;46.942;7.432;2023-05-08T11:55:04;20.20;99.90
10051;DHT22;5065;46.942;7.432;2023-05-08T11:57:31;20.20;99.90
10051;DHT22;5065;46.942;7.432;2023-05-08T12:00:04;20.30;99.90
10051;DHT22;5065;46.942;7.432;2023-05-08T12:02:39;20.20;99.90
10051;DHT22;5065;46.942;7.432;2023-05-08T12:05:07;20.20;99.90
10051;DHT22;5065;46.942;7.432;2023-05-08T12:07:41;20.30;99.90
10051;DHT22;5065;46.942;7.432;2023-05-08T12:10:10;20.30;99.90
10051;DHT22;5065;46.942;7.432;2023-05-08T12:12:37;20.30;99.90
10051;DHT22;5065;46.942;7.432;2023-05-08T12:15:11;20.30;99.90
10051;DHT22;5065;46.942;7.432;2023-05-08T12:17:38;20.30;99.90
10051;DHT22;5065;46.942;7.432;2023-05-08T12:20:09;20.40;99.90
10051;DHT22;5065;46.942;7.432;2023-05-08T12:22:38;20.40;99.90
10051;DHT22;5065;46.942;7.432;2023-05-08T12:25:07;20.50;99.90
10051;DHT22;5065;46.942;7.432;2023-05-08T12:27:36;20.50;99.90
10051;DHT22;5065;46.942;7.432;2023-05-08T12:30:09;20.60;99.90
10051;DHT22;5065;46.942;7.432;2023-05-08T12:32:37;20.60;99.90
10051;DHT22;5065;46.942;7.432;2023-05-08T12:35:05;20.70;99.90
10051;DHT22;5065;46.942;7.432;2023-05-08T12:37:33;20.80;99.90
10051;DHT22;5065;46.942;7.432;2023-05-08T12:40:01;20.80;99.90
10051;DHT22;5065;46.942;7.432;2023-05-08T12:42:41;20.90;99.90
10051;DHT22;5065;46.942;7.432;2023-05-08T12:45:16;20.90;99.90
10051;DHT22;5065;46.942;7.432;2023-05-08T12:47:45;21.00;99.90
10051;DHT22;5065;46.942;7.432;2023-05-08T12:50:14;21.00;99.90
10051;DHT22;5065;46.942;7.432;2023-05-08T12:52:42;21.00;99.90
10051;DHT22;5065;46.942;7.432;2023-05-08T12:55:23;21.00;99.90
10051;DHT22;5065;46.942;7.432;2023-05-08T12:57:58;20.90;99.90
10051;DHT22;5065;46.942;7.432;2023-05-08T13:00:34;20.90;99.90
10051;DHT22;5065;46.942;7.432;2023-05-08T13:03:02;20.80;99.90
10051;DHT22;5065;46.942;7.432;2023-05-08T13:05:29;20.80;99.90
10051;DHT22;5065;46.942;7.432;2023-05-08T13:08:00;20.80;99.90
10051;DHT22;5065;46.942;7.432;2023-05-08T13:10:47;20.70;99.90
10051;DHT22;5065;46.942;7.432;2023-05-08T13:13:16;20.60;99.90
10051;DHT22;5065;46.942;7.432;2023-05-08T13:15:46;20.60;99.90
10051;DHT22;5065;46.942;7.432;2023-05-08T13:18:13;20.50;99.90
10051;DHT22;5065;46.942;7.432;2023-05-08T13:20:41;20.50;99.90
10051;DHT22;5065;46.942;7.432;2023-05-08T13:23:09;20.50;99.90
10051;DHT22;5065;46.942;7.432;2023-05-08T13:25:36;20.40;99.90
10051;DHT22;5065;46.942;7.432;2023-05-08T13:28:04;20.40;99.90
10051;DHT22;5065;46.942;7.432;2023-05-08T13:30:32;20.30;99.90
10051;DHT22;5065;46.942;7.432;2023-05-08T13:33:00;20.30;99.90
10051;DHT22;5065;46.942;7.432;2023-05-08T13:35:28;20.30;99.90
10051;DHT22;5065;46.942;7.432;2023-05-08T13:37:55;20.30;99.90
10051;DHT22;5065;46.942;7.432;2023-05-08T13:40:23;20.30;99.90
10051;DHT22;5065;46.942;7.432;2023-05-08T13:42:51;20.20;99.90
10051;DHT22;5065;46.942;7.432;2023-05-08T13:45:18;20.20;99.90
10051;DHT22;5065;46.942;7.432;2023-05-08T13:47:46;20.20;99.90
10051;DHT22;5065;46.942;7.432;2023-05-08T13:50:17;20.20;99.90
10051;DHT22;5065;46.942;7.432;2023-05-08T13:52:44;20.20;99.90
10051;DHT22;5065;46.942;7.432;2023-05-08T13:55:12;20.20;99.90
10051;DHT22;5065;46.942;7.432;2023-05-08T13:57:40;20.30;99.90
10051;DHT22;5065;46.942;7.432;2023-05-08T14:00:08;20.30;99.90
10051;DHT22;5065;46.942;7.432;2023-05-08T14:02:36;20.30;99.90
10051;DHT22;5065;46.942;7.432;2023-05-08T14:05:04;20.30;99.90
10051;DHT22;5065;46.942;7.432;2023-05-08T14:07:34;20.20;99.90
10051;DHT22;5065;46.942;7.432;2023-05-08T14:10:01;20.20;99.90
10051;DHT22;5065;46.942;7.432;2023-05-08T14:12:28;20.20;99.90
10051;DHT22;5065;46.942;7.432;2023-05-08T14:14:55;20.20;99.90
10051;DHT22;5065;46.942;7.432;2023-05-08T14:17:23;20.20;99.90
10051;DHT22;5065;46.942;7.432;2023-05-08T14:19:50;20.30;99.90
10051;DHT22;5065;46.942;7.432;2023-05-08T14:22:17;20.30;99.90
10051;DHT22;5065;46.942;7.432;2023-05-08T14:24:46;20.40;99.90
10051;DHT22;5065;46.942;7.432;2023-05-08T14:27:13;20.40;99.90
10051;DHT22;5065;46.942;7.432;2023-05-08T14:29:40;20.40;99.90
10051;DHT22;5065;46.942;7.432;2023-05-08T14:32:08;20.40;99.90
10051;DHT22;5065;46.942;7.432;2023-05-08T14:34:35;20.50;99.90
10051;DHT22;5065;46.942;7.432;2023-05-08T14:37:02;20.50;99.90
10051;DHT22;5065;46.942;7.432;2023-05-08T14:39:30;20.50;99.90
10051;DHT22;5065;46.942;7.432;2023-05-08T14:42:00;20.60;99.90
10051;DHT22;5065;46.942;7.432;2023-05-08T14:44:27;20.60;99.90
10051;DHT22;5065;46.942;7.432;2023-05-08T14:46:54;20.60;99.90
10051;DHT22;5065;46.942;7.432;2023-05-08T14:49:21;20.70;99.90
10051;DHT22;5065;46.942;7.432;2023-05-08T14:51:49;20.70;99.90
10051;DHT22;5065;46.942;7.432;2023-05-08T14:54:16;20.70;99.90
10051;DHT22;5065;46.942;7.432;2023-05-08T14:56:43;20.80;99.90
10051;DHT22;5065;46.942;7.432;2023-05-08T14:59:12;20.70;99.90
10051;DHT22;5065;46.942;7.432;2023-05-08T15:01:39;20.80;99.90
10051;DHT22;5065;46.942;7.432;2023-05-08T15:04:08;20.80;99.90
10051;DHT22;5065;46.942;7.432;2023-05-08T15:06:36;20.80;99.90
10051;DHT22;5065;46.942;7.432;2023-05-08T15:09:06;20.80;99.90
10051;DHT22;5065;46.942;7.432;2023-05-08T15:11:34;20.80;99.90
10051;DHT22;5065;46.942;7.432;2023-05-08T15:14:01;20.80;99.90
10051;DHT22;5065;46.942;7.432;2023-05-08T15:16:30;20.80;99.90
10051;DHT22;5065;46.942;7.432;2023-05-08T15:18:57;20.80;99.90
10051;DHT22;5065;46.942;7.432;2023-05-08T15:21:24;20.80;99.90
10051;DHT22;5065;46.942;7.432;2023-05-08T15:23:52;20.80;99.90
10051;DHT22;5065;46.942;7.432;2023-05-08T15:26:20;20.80;99.90
10051;DHT22;5065;46.942;7.432;2023-05-08T15:28:47;20.90;99.90
10051;DHT22;5065;46.942;7.432;2023-05-08T15:31:15;20.90;99.90
10051;DHT22;5065;46.942;7.432;2023-05-08T15:33:44;20.90;99.90
10051;DHT22;5065;46.942;7.432;2023-05-08T15:36:12;20.90;99.90
10051;DHT22;5065;46.942;7.432;2023-05-08T15:38:42;20.90;99.90
10051;DHT22;5065;46.942;7.432;2023-05-08T15:41:09;20.90;99.90
10051;DHT22;5065;46.942;7.432;2023-05-08T15:43:38;21.00;99.90
10051;DHT22;5065;46.942;7.432;2023-05-08T15:46:05;21.00;99.90
10051;DHT22;5065;46.942;7.432;2023-05-08T15:48:32;21.00;99.90
10051;DHT22;5065;46.942;7.432;2023-05-08T15:51:02;21.00;99.90
10051;DHT22;5065;46.942;7.432;2023-05-08T15:53:29;21.00;99.90
10051;DHT22;5065;46.942;7.432;2023-05-08T15:55:56;21.00;99.90
10051;DHT22;5065;46.942;7.432;2023-05-08T15:58:23;21.00;99.90
10051;DHT22;5065;46.942;7.432;2023-05-08T16:00:51;21.00;99.90
10051;DHT22;5065;46.942;7.432;2023-05-08T16:03:18;21.00;99.90